Time,TemperatureF,DewpointF,PressureIn,WindDirection,WindDirectionDegrees,WindSpeedMPH,WindSpeedGustMPH,Humidity,HourlyPrecipIn,Conditions,Clouds,dailyrainin,SoftwareType,DateUTC
2013-02-12 00:00:00,57.0,57.0,30.00,West,259,9.0,15.0,100,0.00,,---,0.13,VWS V14.00,2013-02-12 05:00:00,
2013-02-12 00:05:00,57.2,57.2,30.00,West,261,11.0,12.0,100,0.00,,---,0.00,VWS V14.00,2013-02-12 05:05:00,
2013-02-12 00:10:00,57.3,57.3,29.99,WSW,257,8.0,12.0,100,0.00,,---,0.00,VWS V14.00,2013-02-12 05:10:00,
2013-02-12 00:15:00,57.4,57.4,30.00,WSW,253,11.0,14.0,100,0.00,,---,0.00,VWS V14.00,2013-02-12 05:15:00,
2013-02-12 00:20:00,57.5,57.5,30.00,WSW,257,11.0,15.0,100,0.00,,---,0.00,VWS V14.00,2013-02-12 05:20:00,
2013-02-12 00:25:00,57.6,57.6,30.00,West,259,11.0,16.0,100,0.00,,---,0.00,VWS V14.00,2013-02-12 05:25:00,
2013-02-12 00:30:00,57.7,57.7,30.00,WSW,258,11.0,13.0,100,0.00,,---,0.00,VWS V14.00,2013-02-12 05:30:00,
2013-02-12 00:35:00,57.8,57.8,30.00,WSW,256,12.0,15.0,100,0.00,,---,0.00,VWS V14.00,2013-02-12 05:35:00,
2013-02-12 00:40:00,57.8,57.8,29.99,West,262,11.0,15.0,100,0.00,,---,0.00,VWS V14.00,2013-02-12 05:40:00,
2013-02-12 00:45:00,57.8,57.8,30.00,WSW,253,10.0,17.0,100,0.00,,---,0.00,VWS V14.00,2013-02-12 05:45:00,
2013-02-12 00:50:00,57.8,57.8,30.00,WSW,257,15.0,17.0,100,0.00,,---,0.00,VWS V14.00,2013-02-12 05:50:00,
2013-02-12 00:55:00,57.6,57.6,30.00,WSW,254,9.0,18.0,100,0.00,,---,0.00,VWS V14.00,2013-02-12 05:55:00,
2013-02-12 01:00:00,57.6,57.6,30.00,WSW,255,11.0,11.0,100,0.00,,---,0.00,VWS V14.00,2013-02-12 06:00:00,
2013-02-12 01:05:00,57.6,57.6,29.99,West,261,15.0,17.0,100,0.00,,---,0.00,VWS V14.00,2013-02-12 06:05:00,
2013-02-12 01:10:00,57.8,57.8,29.99,West,262,16.0,17.0,100,0.00,,---,0.00,VWS V14.00,2013-02-12 06:10:00,
2013-02-12 01:15:00,57.9,57.9,29.99,West,261,12.0,17.0,100,0.00,,---,0.00,VWS V14.00,2013-02-12 06:15:00,
2013-02-12 01:20:00,58.1,58.1,29.99,WSW,254,11.0,19.0,100,0.00,,---,0.00,VWS V14.00,2013-02-12 06:20:00,
2013-02-12 01:25:00,58.3,58.3,29.99,WSW,252,12.0,20.0,100,0.00,,---,0.00,VWS V14.00,2013-02-12 06:25:00,
2013-02-12 01:30:00,58.3,58.3,29.99,WSW,246,13.0,15.0,100,0.00,,---,0.00,VWS V14.00,2013-02-12 06:30:00,
2013-02-12 01:35:00,58.0,58.0,30.00,WSW,254,10.0,19.0,100,0.00,,---,0.00,VWS V14.00,2013-02-12 06:35:00,
2013-02-12 01:40:00,57.8,57.8,30.00,WSW,253,11.0,19.0,100,0.00,,---,0.00,VWS V14.00,2013-02-12 06:40:00,
2013-02-12 01:45:00,57.6,57.6,30.00,WSW,251,14.0,19.0,100,0.00,,---,0.00,VWS V14.00,2013-02-12 06:45:00,
2013-02-12 01:50:00,57.5,57.5,29.99,WSW,252,13.0,19.0,100,0.00,,---,0.00,VWS V14.00,2013-02-12 06:50:00,
2013-02-12 01:55:00,57.4,57.4,30.00,WSW,253,11.0,21.0,100,0.00,,---,0.00,VWS V14.00,2013-02-12 06:55:00,
2013-02-12 02:00:00,57.4,57.4,29.99,WSW,254,14.0,14.0,100,0.00,,---,0.00,VWS V14.00,2013-02-12 07:00:00,
2013-02-12 02:05:00,57.3,57.3,29.99,WSW,253,14.0,19.0,100,0.00,,---,0.00,VWS V14.00,2013-02-12 07:05:00,
2013-02-12 02:10:00,57.3,57.3,30.00,WSW,252,13.0,19.0,100,0.00,,---,0.00,VWS V14.00,2013-02-12 07:10:00,
2013-02-12 02:15:00,57.2,57.2,30.00,WSW,254,13.0,20.0,100,0.00,,---,0.00,VWS V14.00,2013-02-12 07:15:00,
2013-02-12 02:20:00,57.2,57.2,30.00,WSW,253,12.0,21.0,100,0.00,,---,0.00,VWS V14.00,2013-02-12 07:20:00,
2013-02-12 02:25:00,57.1,57.1,30.01,WSW,258,15.0,21.0,100,0.00,,---,0.00,VWS V14.00,2013-02-12 07:25:00,
2013-02-12 02:30:00,57.1,57.1,30.01,West,259,13.0,16.0,100,0.00,,---,0.00,VWS V14.00,2013-02-12 07:30:00,
2013-02-12 02:35:00,57.0,57.0,30.01,WSW,257,18.0,18.0,100,0.00,,---,0.00,VWS V14.00,2013-02-12 07:35:00,
2013-02-12 02:40:00,56.9,56.9,30.01,WSW,255,12.0,20.0,100,0.00,,---,0.00,VWS V14.00,2013-02-12 07:40:00,
2013-02-12 02:45:00,56.9,56.9,30.01,WSW,254,13.0,20.0,100,0.00,,---,0.00,VWS V14.00,2013-02-12 07:45:00,
2013-02-12 02:50:00,56.8,56.8,30.01,WSW,249,13.0,20.0,100,0.00,,---,0.00,VWS V14.00,2013-02-12 07:50:00,
2013-02-12 02:55:00,56.6,56.6,30.01,WSW,258,17.0,20.0,100,0.00,,---,0.00,VWS V14.00,2013-02-12 07:55:00,
2013-02-12 03:00:00,56.6,56.6,30.01,West,262,12.0,17.0,100,0.00,,---,0.00,VWS V14.00,2013-02-12 08:00:00,
2013-02-12 03:05:00,56.6,56.6,30.01,West,259,15.0,20.0,100,0.00,,---,0.00,VWS V14.00,2013-02-12 08:05:00,
2013-02-12 03:10:00,56.6,56.6,30.01,WSW,247,14.0,20.0,100,0.00,,---,0.00,VWS V14.00,2013-02-12 08:10:00,
2013-02-12 03:15:00,56.7,56.7,30.01,WSW,245,12.0,22.0,100,0.00,,---,0.00,VWS V14.00,2013-02-12 08:15:00,
2013-02-12 03:20:00,56.5,56.5,30.01,WSW,251,12.0,22.0,100,0.00,,---,0.00,VWS V14.00,2013-02-12 08:20:00,
2013-02-12 03:25:00,56.4,56.4,30.01,WSW,242,16.0,22.0,100,0.00,,---,0.00,VWS V14.00,2013-02-12 08:25:00,
2013-02-12 03:30:00,56.4,56.4,30.01,WSW,255,13.0,22.0,100,0.00,,---,0.00,VWS V14.00,2013-02-12 08:30:00,
2013-02-12 03:35:00,56.4,56.4,30.01,WSW,250,15.0,19.0,100,0.00,,---,0.00,VWS V14.00,2013-02-12 08:35:00,
2013-02-12 03:40:00,56.3,56.3,30.01,WSW,244,12.0,19.0,100,0.00,,---,0.00,VWS V14.00,2013-02-12 08:40:00,
2013-02-12 03:45:00,56.3,56.3,30.00,WSW,257,15.0,19.0,100,0.00,,---,0.00,VWS V14.00,2013-02-12 08:45:00,
2013-02-12 03:50:00,56.2,56.2,30.00,WSW,248,8.0,19.0,100,0.00,,---,0.00,VWS V14.00,2013-02-12 08:50:00,
2013-02-12 03:55:00,56.2,56.2,30.00,WSW,250,9.0,22.0,100,0.00,,---,0.00,VWS V14.00,2013-02-12 08:55:00,
2013-02-12 04:00:00,56.2,56.2,30.01,WSW,256,14.0,22.0,100,0.00,,---,0.00,VWS V14.00,2013-02-12 09:00:00,
2013-02-12 04:05:00,56.1,56.1,30.01,WSW,245,15.0,15.0,100,0.00,,---,0.00,VWS V14.00,2013-02-12 09:05:00,
2013-02-12 04:10:00,56.1,56.1,30.01,WSW,252,11.0,15.0,100,0.00,,---,0.00,VWS V14.00,2013-02-12 09:10:00,
2013-02-12 04:15:00,56.1,56.1,30.01,WSW,256,13.0,15.0,100,0.00,,---,0.00,VWS V14.00,2013-02-12 09:15:00,
2013-02-12 04:20:00,56.1,56.1,30.01,West,261,14.0,16.0,100,0.00,,---,0.00,VWS V14.00,2013-02-12 09:20:00,
2013-02-12 04:25:00,56.1,56.1,30.01,WSW,255,9.0,16.0,100,0.00,,---,0.00,VWS V14.00,2013-02-12 09:25:00,
2013-02-12 04:30:00,56.1,56.1,30.01,West,268,13.0,16.0,100,0.00,,---,0.00,VWS V14.00,2013-02-12 09:30:00,
2013-02-12 04:35:00,56.1,56.1,30.00,West,263,6.0,13.0,100,0.00,,---,0.00,VWS V14.00,2013-02-12 09:35:00,
2013-02-12 04:40:00,56.1,56.1,30.00,WSW,252,11.0,14.0,100,0.00,,---,0.00,VWS V14.00,2013-02-12 09:40:00,
2013-02-12 04:45:00,56.1,56.1,30.01,WSW,257,10.0,15.0,100,0.00,,---,0.00,VWS V14.00,2013-02-12 09:45:00,
2013-02-12 04:50:00,56.1,56.1,30.01,WSW,250,11.0,15.0,100,0.00,,---,0.00,VWS V14.00,2013-02-12 09:50:00,
2013-02-12 04:55:00,56.0,56.0,30.02,West,264,9.0,15.0,100,0.00,,---,0.00,VWS V14.00,2013-02-12 09:55:00,
2013-02-12 05:00:00,56.0,56.0,30.02,West,265,8.0,15.0,100,0.00,,---,0.00,VWS V14.00,2013-02-12 10:00:00,
2013-02-12 05:05:00,55.9,55.9,30.02,West,272,3.0,10.0,100,0.00,,---,0.00,VWS V14.00,2013-02-12 10:05:00,
2013-02-12 05:10:00,55.9,55.9,30.01,WNW,284,3.0,10.0,100,0.00,,---,0.00,VWS V14.00,2013-02-12 10:10:00,
2013-02-12 05:15:00,55.7,55.7,30.01,WNW,301,3.0,10.0,100,0.00,,---,0.00,VWS V14.00,2013-02-12 10:15:00,
2013-02-12 05:20:00,55.5,55.5,30.01,NW,304,3.0,10.0,100,0.00,,---,0.00,VWS V14.00,2013-02-12 10:20:00,
2013-02-12 05:25:00,55.3,55.3,30.01,WNW,299,3.0,10.0,100,0.00,,---,0.00,VWS V14.00,2013-02-12 10:25:00,
2013-02-12 05:30:00,55.1,55.1,30.01,WNW,298,3.0,10.0,100,0.00,,---,0.00,VWS V14.00,2013-02-12 10:30:00,
2013-02-12 05:35:00,55.0,55.0,30.01,WNW,294,3.0,4.0,100,0.00,,---,0.00,VWS V14.00,2013-02-12 10:35:00,
2013-02-12 05:40:00,54.9,54.9,30.01,West,281,1.0,4.0,100,0.00,,---,0.00,VWS V14.00,2013-02-12 10:40:00,
2013-02-12 05:45:00,54.7,54.7,30.02,West,270,2.0,4.0,100,0.00,,---,0.00,VWS V14.00,2013-02-12 10:45:00,
2013-02-12 05:50:00,54.6,54.6,30.02,West,270,1.0,4.0,100,0.00,,---,0.00,VWS V14.00,2013-02-12 10:50:00,
2013-02-12 05:55:00,54.5,54.5,30.03,West,266,3.0,4.0,100,0.00,,---,0.00,VWS V14.00,2013-02-12 10:55:00,
2013-02-12 06:00:00,54.6,54.6,30.02,West,268,1.0,4.0,100,0.00,,---,0.00,VWS V14.00,2013-02-12 11:00:00,
2013-02-12 06:05:00,54.6,54.6,30.02,West,266,2.0,3.0,100,0.00,,---,0.00,VWS V14.00,2013-02-12 11:05:00,
2013-02-12 06:10:00,54.6,54.6,30.03,West,267,1.0,4.0,100,0.00,,---,0.00,VWS V14.00,2013-02-12 11:10:00,
2013-02-12 06:15:00,54.7,54.7,30.03,West,267,1.0,4.0,100,0.00,,---,0.00,VWS V14.00,2013-02-12 11:15:00,
2013-02-12 06:20:00,54.6,54.6,30.03,West,267,1.0,4.0,100,0.00,,---,0.00,VWS V14.00,2013-02-12 11:20:00,
2013-02-12 06:25:00,54.6,54.6,30.04,West,276,2.0,4.0,100,0.00,,---,0.00,VWS V14.00,2013-02-12 11:25:00,
2013-02-12 06:30:00,54.6,54.6,30.04,WNW,283,3.0,7.0,100,0.00,,---,0.00,VWS V14.00,2013-02-12 11:30:00,
2013-02-12 06:35:00,54.6,54.6,30.04,West,274,3.0,7.0,100,0.00,,---,0.00,VWS V14.00,2013-02-12 11:35:00,
2013-02-12 06:40:00,54.6,54.6,30.04,West,270,2.0,7.0,100,0.00,,---,0.00,VWS V14.00,2013-02-12 11:40:00,
2013-02-12 06:45:00,54.5,54.5,30.05,West,272,3.0,7.0,100,0.00,,---,0.00,VWS V14.00,2013-02-12 11:45:00,
2013-02-12 06:50:00,54.5,54.5,30.05,West,265,2.0,7.0,100,0.00,,---,0.00,VWS V14.00,2013-02-12 11:50:00,
2013-02-12 06:55:00,54.5,54.5,30.05,West,265,2.0,7.0,100,0.00,,---,0.00,VWS V14.00,2013-02-12 11:55:00,
2013-02-12 07:00:00,54.4,54.4,30.05,West,265,1.0,7.0,100,0.00,,---,0.00,VWS V14.00,2013-02-12 12:00:00,
2013-02-12 07:05:00,54.4,54.4,30.05,West,266,3.0,4.0,100,0.00,,---,0.00,VWS V14.00,2013-02-12 12:05:00,
2013-02-12 07:10:00,54.5,54.5,30.06,West,268,0.0,4.0,100,0.00,,---,0.00,VWS V14.00,2013-02-12 12:10:00,
2013-02-12 07:15:00,54.4,54.4,30.06,West,268,1.0,4.0,100,0.00,,---,0.00,VWS V14.00,2013-02-12 12:15:00,
2013-02-12 07:20:00,54.4,54.4,30.05,West,269,1.0,4.0,100,0.00,,---,0.00,VWS V14.00,2013-02-12 12:20:00,
2013-02-12 07:25:00,54.4,54.4,30.05,West,269,1.0,4.0,100,0.00,,---,0.00,VWS V14.00,2013-02-12 12:25:00,
2013-02-12 07:30:00,54.4,54.4,30.06,West,270,3.0,4.0,100,0.00,,---,0.00,VWS V14.00,2013-02-12 12:30:00,
2013-02-12 07:35:00,54.3,54.3,30.06,West,278,3.0,3.0,100,0.00,,---,0.00,VWS V14.00,2013-02-12 12:35:00,
2013-02-12 07:40:00,54.4,54.4,30.07,WNW,282,4.0,4.0,100,0.00,,---,0.00,VWS V14.00,2013-02-12 12:40:00,
2013-02-12 07:45:00,54.3,54.3,30.08,WNW,291,3.0,5.0,100,0.00,,---,0.00,VWS V14.00,2013-02-12 12:45:00,
2013-02-12 07:50:00,54.3,54.3,30.07,WNW,292,4.0,6.0,100,0.00,,---,0.00,VWS V14.00,2013-02-12 12:50:00,
2013-02-12 07:55:00,54.3,54.3,30.07,WNW,289,7.0,7.0,100,0.00,,---,0.00,VWS V14.00,2013-02-12 12:55:00,
2013-02-12 08:00:00,54.2,54.2,30.08,WNW,295,4.0,7.0,100,0.00,,---,0.00,VWS V14.00,2013-02-12 13:00:00,
2013-02-12 08:05:00,54.2,54.2,30.08,WNW,294,3.0,5.0,100,0.00,,---,0.00,VWS V14.00,2013-02-12 13:05:00,
2013-02-12 08:10:00,54.2,54.2,30.08,WNW,295,2.0,5.0,100,0.00,,---,0.00,VWS V14.00,2013-02-12 13:10:00,
2013-02-12 08:15:00,54.2,54.2,30.08,WNW,295,2.0,5.0,100,0.00,,---,0.00,VWS V14.00,2013-02-12 13:15:00,
2013-02-12 08:20:00,54.1,54.1,30.08,WNW,300,3.0,5.0,100,0.00,,---,0.00,VWS V14.00,2013-02-12 13:20:00,
2013-02-12 08:25:00,54.2,54.2,30.08,WNW,298,6.0,6.0,100,0.00,,---,0.00,VWS V14.00,2013-02-12 13:25:00,
2013-02-12 08:30:00,54.3,54.3,30.08,NW,312,3.0,6.0,100,0.00,,---,0.00,VWS V14.00,2013-02-12 13:30:00,
2013-02-12 08:35:00,54.3,54.3,30.08,NW,314,9.0,10.0,100,0.00,,---,0.00,VWS V14.00,2013-02-12 13:35:00,
2013-02-12 08:40:00,54.4,54.4,30.09,NW,309,8.0,10.0,100,0.00,,---,0.00,VWS V14.00,2013-02-12 13:40:00,
2013-02-12 08:45:00,54.5,54.5,30.09,NW,316,7.0,11.0,100,0.00,,---,0.00,VWS V14.00,2013-02-12 13:45:00,
2013-02-12 08:50:00,54.6,54.6,30.09,NW,318,6.0,11.0,100,0.00,,---,0.00,VWS V14.00,2013-02-12 13:50:00,
2013-02-12 08:55:00,54.6,54.6,30.09,NW,321,7.0,11.0,100,0.00,,---,0.00,VWS V14.00,2013-02-12 13:55:00,
2013-02-12 09:00:00,54.7,54.7,30.08,NW,319,7.0,11.0,100,0.00,,---,0.00,VWS V14.00,2013-02-12 14:00:00,
2013-02-12 09:05:00,54.7,54.7,30.09,NW,323,8.0,14.0,100,0.00,,---,0.00,VWS V14.00,2013-02-12 14:05:00,
2013-02-12 09:10:00,54.8,54.8,30.09,NW,324,7.0,14.0,100,0.00,,---,0.00,VWS V14.00,2013-02-12 14:10:00,
2013-02-12 09:15:00,54.9,54.9,30.09,NW,321,7.0,14.0,100,0.00,,---,0.00,VWS V14.00,2013-02-12 14:15:00,
2013-02-12 09:20:00,54.9,54.9,30.09,NNW,335,9.0,14.0,100,0.00,,---,0.00,VWS V14.00,2013-02-12 14:20:00,
2013-02-12 09:25:00,55.0,55.0,30.09,NNW,338,10.0,15.0,100,0.00,,---,0.00,VWS V14.00,2013-02-12 14:25:00,
2013-02-12 09:30:00,54.9,54.9,30.08,NNW,329,7.0,15.0,100,0.00,,---,0.00,VWS V14.00,2013-02-12 14:30:00,
2013-02-12 09:35:00,54.8,54.8,30.09,NNW,335,8.0,13.0,100,0.00,,---,0.00,VWS V14.00,2013-02-12 14:35:00,
2013-02-12 09:40:00,54.8,54.8,30.09,NNW,335,10.0,13.0,100,0.00,,---,0.00,VWS V14.00,2013-02-12 14:40:00,
2013-02-12 09:45:00,54.8,54.8,30.09,NW,326,10.0,13.0,100,0.00,,---,0.00,VWS V14.00,2013-02-12 14:45:00,
2013-02-12 09:50:00,54.7,54.7,30.09,NNW,333,7.0,14.0,100,0.00,,---,0.00,VWS V14.00,2013-02-12 14:50:00,
2013-02-12 09:55:00,54.6,54.6,30.09,NNW,339,10.0,14.0,100,0.00,,---,0.00,VWS V14.00,2013-02-12 14:55:00,
2013-02-12 10:00:00,54.5,54.5,30.08,NNW,345,9.0,14.0,100,0.00,,---,0.00,VWS V14.00,2013-02-12 15:00:00,
2013-02-12 10:05:00,54.4,54.4,30.09,NNW,334,8.0,12.0,100,0.00,,---,0.00,VWS V14.00,2013-02-12 15:05:00,
2013-02-12 10:10:00,54.3,54.3,30.10,NNW,330,8.0,12.0,100,0.00,,---,0.00,VWS V14.00,2013-02-12 15:10:00,
2013-02-12 10:15:00,54.3,54.3,30.10,NNW,345,6.0,12.0,100,0.00,,---,0.00,VWS V14.00,2013-02-12 15:15:00,
2013-02-12 10:20:00,54.3,54.3,30.09,NNW,348,7.0,12.0,100,0.00,,---,0.00,VWS V14.00,2013-02-12 15:20:00,
2013-02-12 10:25:00,54.3,54.3,30.10,NNW,337,7.0,12.0,100,0.00,,---,0.00,VWS V14.00,2013-02-12 15:25:00,
2013-02-12 10:29:00,54.3,54.3,30.11,NNW,332,6.0,12.0,100,0.01,,---,0.01,VWS V14.00,2013-02-12 15:29:00,
2013-02-12 10:34:00,54.3,54.3,30.11,NNW,337,6.0,10.0,100,0.01,,---,0.01,VWS V14.00,2013-02-12 15:34:00,
2013-02-12 10:39:00,54.3,54.3,30.11,NNW,339,7.0,10.0,100,0.01,,---,0.01,VWS V14.00,2013-02-12 15:39:00,
2013-02-12 10:44:00,54.3,54.3,30.11,NNW,332,6.0,10.0,100,0.01,,---,0.01,VWS V14.00,2013-02-12 15:44:00,
2013-02-12 10:50:00,54.2,54.2,30.11,NNW,338,7.0,10.0,100,0.01,,---,0.01,VWS V14.00,2013-02-12 15:50:00,
2013-02-12 10:55:00,54.2,54.2,30.10,NNW,330,6.0,10.0,100,0.01,,---,0.01,VWS V14.00,2013-02-12 15:55:00,
2013-02-12 11:00:00,54.2,54.2,30.10,NNW,328,6.0,10.0,100,0.01,,---,0.01,VWS V14.00,2013-02-12 16:00:00,
2013-02-12 11:04:00,54.2,54.2,30.10,NW,326,6.0,8.0,100,0.01,,---,0.01,VWS V14.00,2013-02-12 16:04:00,
2013-02-12 11:09:00,54.1,54.1,30.09,NW,325,4.0,8.0,100,0.00,,---,0.01,VWS V14.00,2013-02-12 16:09:00,
2013-02-12 11:14:00,54.2,54.2,30.09,NW,324,4.0,8.0,100,0.00,,---,0.01,VWS V14.00,2013-02-12 16:14:00,
2013-02-12 11:19:00,54.2,54.2,30.10,NW,322,1.0,8.0,100,0.00,,---,0.01,VWS V14.00,2013-02-12 16:19:00,
2013-02-12 11:24:00,54.2,54.2,30.10,NW,323,1.0,8.0,100,0.00,,---,0.01,VWS V14.00,2013-02-12 16:24:00,
2013-02-12 11:29:00,54.2,54.2,30.10,NW,313,7.0,8.0,100,0.00,,---,0.01,VWS V14.00,2013-02-12 16:29:00,
2013-02-12 11:34:00,54.3,54.3,30.11,NW,308,5.0,10.0,100,0.00,,---,0.01,VWS V14.00,2013-02-12 16:34:00,
2013-02-12 11:39:00,54.2,53.9,30.11,NW,317,7.0,10.0,99,0.00,,---,0.01,VWS V14.00,2013-02-12 16:39:00,
2013-02-12 11:44:00,54.2,53.9,30.12,NW,311,5.0,10.0,99,0.00,,---,0.01,VWS V14.00,2013-02-12 16:44:00,
2013-02-12 11:49:00,54.1,53.5,30.12,WNW,302,9.0,10.0,98,0.00,,---,0.01,VWS V14.00,2013-02-12 16:49:00,
2013-02-12 11:54:00,54.1,53.8,30.12,WNW,299,2.0,10.0,99,0.00,,---,0.01,VWS V14.00,2013-02-12 16:54:00,
2013-02-12 11:59:00,54.1,54.1,30.11,West,278,2.0,10.0,100,0.00,,---,0.01,VWS V14.00,2013-02-12 16:59:00,
2013-02-12 12:04:00,54.1,54.1,30.11,West,272,1.0,2.0,100,0.00,,---,0.01,VWS V14.00,2013-02-12 17:04:00,
2013-02-12 12:09:00,54.0,54.0,30.11,West,281,3.0,3.0,100,0.00,,---,0.01,VWS V14.00,2013-02-12 17:09:00,
2013-02-12 12:14:00,54.0,53.7,30.11,NW,305,7.0,9.0,99,0.00,,---,0.01,VWS V14.00,2013-02-12 17:14:00,
2013-02-12 12:19:00,53.9,53.3,30.10,NW,309,6.0,9.0,98,0.00,,---,0.01,VWS V14.00,2013-02-12 17:19:00,
2013-02-12 12:24:00,53.9,52.2,30.10,NW,319,10.0,10.0,94,0.00,,---,0.01,VWS V14.00,2013-02-12 17:24:00,
2013-02-12 12:29:00,53.9,51.3,30.10,NW,325,7.0,10.0,91,0.00,,---,0.01,VWS V14.00,2013-02-12 17:29:00,
2013-02-12 12:34:00,53.9,51.6,30.09,NW,322,7.0,8.0,92,0.00,,---,0.01,VWS V14.00,2013-02-12 17:34:00,
2013-02-12 12:39:00,53.8,52.4,30.10,NW,312,6.0,8.0,95,0.00,,---,0.01,VWS V14.00,2013-02-12 17:39:00,
2013-02-12 12:44:00,53.9,52.2,30.10,WNW,302,2.0,8.0,94,0.00,,---,0.01,VWS V14.00,2013-02-12 17:44:00,
2013-02-12 12:49:00,53.9,52.8,30.08,WNW,302,1.0,8.0,96,0.00,,---,0.01,VWS V14.00,2013-02-12 17:49:00,
2013-02-12 12:54:00,54.1,52.4,30.08,WNW,286,1.0,8.0,94,0.00,,---,0.01,VWS V14.00,2013-02-12 17:54:00,
2013-02-12 12:59:00,54.3,52.3,30.08,West,267,4.0,8.0,93,0.00,,---,0.01,VWS V14.00,2013-02-12 17:59:00,
2013-02-12 13:04:00,54.5,51.9,30.07,West,279,2.0,4.0,91,0.00,,---,0.01,VWS V14.00,2013-02-12 18:04:00,
2013-02-12 13:09:00,54.6,51.4,30.06,West,264,2.0,4.0,89,0.00,,---,0.01,VWS V14.00,2013-02-12 18:09:00,
2013-02-12 13:14:00,54.8,51.3,30.05,West,263,2.0,4.0,88,0.00,,---,0.01,VWS V14.00,2013-02-12 18:14:00,
2013-02-12 13:19:00,55.1,51.3,30.05,West,264,1.0,4.0,87,0.00,,---,0.01,VWS V14.00,2013-02-12 18:19:00,
2013-02-12 13:24:00,55.2,51.1,30.04,West,269,0.0,4.0,86,0.00,,---,0.01,VWS V14.00,2013-02-12 18:24:00,
2013-02-12 13:29:00,55.3,50.6,30.04,West,270,3.0,4.0,84,0.00,,---,0.01,VWS V14.00,2013-02-12 18:29:00,
2013-02-12 13:34:00,55.4,50.3,30.05,WSW,255,1.0,5.0,83,0.00,,---,0.01,VWS V14.00,2013-02-12 18:34:00,
2013-02-12 13:39:00,55.6,49.9,30.06,West,278,4.0,5.0,81,0.00,,---,0.01,VWS V14.00,2013-02-12 18:39:00,
2013-02-12 13:44:00,55.7,49.6,30.06,WSW,258,2.0,6.0,80,0.00,,---,0.01,VWS V14.00,2013-02-12 18:44:00,
2013-02-12 13:49:00,55.8,49.4,30.06,West,268,3.0,6.0,79,0.00,,---,0.01,VWS V14.00,2013-02-12 18:49:00,
2013-02-12 13:54:00,56.0,50.3,30.06,WSW,255,5.0,7.0,81,0.00,,---,0.01,VWS V14.00,2013-02-12 18:54:00,
2013-02-12 13:59:00,56.2,50.5,30.07,WSW,244,7.0,11.0,81,0.00,,---,0.01,VWS V14.00,2013-02-12 18:59:00,
2013-02-12 14:04:00,56.3,51.5,30.07,WSW,237,3.0,10.0,84,0.00,,---,0.01,VWS V14.00,2013-02-12 19:04:00,
2013-02-12 14:09:00,56.4,51.0,30.06,SW,232,6.0,10.0,82,0.00,,---,0.01,VWS V14.00,2013-02-12 19:09:00,
2013-02-12 14:14:00,56.5,51.4,30.04,WSW,245,2.0,10.0,83,0.00,,---,0.01,VWS V14.00,2013-02-12 19:14:00,
2013-02-12 14:19:00,56.8,51.7,30.03,SW,236,3.0,10.0,83,0.00,,---,0.01,VWS V14.00,2013-02-12 19:19:00,
2013-02-12 14:24:00,57.1,52.3,30.03,SW,218,4.0,10.0,84,0.00,,---,0.01,VWS V14.00,2013-02-12 19:24:00,
2013-02-12 14:29:00,57.3,51.5,30.02,SW,216,8.0,10.0,81,0.00,,---,0.01,VWS V14.00,2013-02-12 19:29:00,
2013-02-12 14:34:00,57.4,52.0,30.02,SW,218,6.0,8.0,82,0.00,,---,0.01,VWS V14.00,2013-02-12 19:34:00,
2013-02-12 14:39:00,57.6,52.2,30.02,SW,217,3.0,8.0,82,0.00,,---,0.01,VWS V14.00,2013-02-12 19:39:00,
2013-02-12 14:44:00,57.8,52.3,30.02,SSW,204,2.0,8.0,82,0.00,,---,0.01,VWS V14.00,2013-02-12 19:44:00,
2013-02-12 14:49:00,57.6,52.2,30.00,SW,222,7.0,8.0,82,0.00,,---,0.01,VWS V14.00,2013-02-12 19:49:00,
2013-02-12 14:54:00,57.6,52.2,30.00,SW,215,2.0,10.0,82,0.00,,---,0.01,VWS V14.00,2013-02-12 19:54:00,
2013-02-12 14:59:00,57.5,51.4,30.00,SSW,200,4.0,10.0,80,0.00,,---,0.01,VWS V14.00,2013-02-12 19:59:00,
2013-02-12 15:04:00,57.4,51.0,30.00,SW,219,7.0,10.0,79,0.00,,---,0.01,VWS V14.00,2013-02-12 20:04:00,
2013-02-12 15:09:00,57.5,51.7,30.00,SW,214,9.0,14.0,81,0.00,,---,0.01,VWS V14.00,2013-02-12 20:09:00,
2013-02-12 15:14:00,57.5,52.1,30.01,SW,222,13.0,15.0,82,0.00,,---,0.01,VWS V14.00,2013-02-12 20:14:00,
2013-02-12 15:19:00,57.5,52.4,30.01,SW,217,6.0,15.0,83,0.00,,---,0.01,VWS V14.00,2013-02-12 20:19:00,
2013-02-12 15:24:00,57.4,52.3,30.01,SW,221,9.0,15.0,83,0.00,,---,0.01,VWS V14.00,2013-02-12 20:24:00,
2013-02-12 15:29:00,57.3,52.2,30.01,SW,221,9.0,15.0,83,0.00,,---,0.01,VWS V14.00,2013-02-12 20:29:00,
2013-02-12 15:34:00,57.3,52.8,30.01,SW,226,9.0,14.0,85,0.00,,---,0.01,VWS V14.00,2013-02-12 20:34:00,
2013-02-12 15:39:00,57.1,52.0,30.01,SW,224,10.0,15.0,83,0.00,,---,0.01,VWS V14.00,2013-02-12 20:39:00,
2013-02-12 15:44:00,57.0,52.5,30.01,SW,216,8.0,15.0,85,0.00,,---,0.01,VWS V14.00,2013-02-12 20:44:00,
2013-02-12 15:49:00,56.9,53.4,30.02,SSW,211,11.0,16.0,88,0.00,,---,0.01,VWS V14.00,2013-02-12 20:49:00,
2013-02-12 15:54:00,57.0,54.1,30.02,SW,233,13.0,16.0,90,0.00,,---,0.01,VWS V14.00,2013-02-12 20:54:00,
2013-02-12 15:59:00,56.8,53.3,30.02,SSW,211,7.0,16.0,88,0.00,,---,0.01,VWS V14.00,2013-02-12 20:59:00,
2013-02-12 16:04:00,56.7,53.2,30.02,SW,225,8.0,14.0,88,0.00,,---,0.01,VWS V14.00,2013-02-12 21:04:00,
2013-02-12 16:09:00,56.6,52.8,30.02,SW,223,10.0,14.0,87,0.00,,---,0.01,VWS V14.00,2013-02-12 21:09:00,
2013-02-12 16:14:00,56.4,53.2,30.02,SW,236,12.0,16.0,89,0.00,,---,0.01,VWS V14.00,2013-02-12 21:14:00,
2013-02-12 16:19:00,56.3,53.1,30.03,WSW,241,11.0,16.0,89,0.00,,---,0.01,VWS V14.00,2013-02-12 21:19:00,
2013-02-12 16:24:00,56.2,53.9,30.02,SW,235,11.0,16.0,92,0.00,,---,0.01,VWS V14.00,2013-02-12 21:24:00,
2013-02-12 16:29:00,56.1,52.9,30.02,SW,218,5.0,16.0,89,0.00,,---,0.01,VWS V14.00,2013-02-12 21:29:00,
2013-02-12 16:34:00,56.0,53.1,30.02,SW,233,9.0,14.0,90,0.00,,---,0.01,VWS V14.00,2013-02-12 21:34:00,
2013-02-12 16:39:00,56.0,54.0,30.02,SW,228,7.0,14.0,93,0.00,,---,0.01,VWS V14.00,2013-02-12 21:39:00,
2013-02-12 16:44:00,55.8,52.6,30.02,WSW,243,4.0,14.0,89,0.00,,---,0.01,VWS V14.00,2013-02-12 21:44:00,
2013-02-12 16:49:00,55.7,53.1,30.02,SW,226,6.0,14.0,91,0.00,,---,0.01,VWS V14.00,2013-02-12 21:49:00,
2013-02-12 16:54:00,55.5,52.9,30.03,SW,217,6.0,14.0,91,0.00,,---,0.01,VWS V14.00,2013-02-12 21:54:00,
2013-02-12 16:59:00,55.4,52.5,30.02,WSW,237,8.0,14.0,90,0.00,,---,0.01,VWS V14.00,2013-02-12 21:59:00,
2013-02-12 17:04:00,55.3,52.7,30.02,SW,229,6.0,13.0,91,0.00,,---,0.01,VWS V14.00,2013-02-12 22:04:00,
2013-02-12 17:09:00,55.1,52.5,30.01,SW,233,6.0,13.0,91,0.00,,---,0.01,VWS V14.00,2013-02-12 22:09:00,
2013-02-12 17:14:00,55.0,53.0,30.01,WSW,239,5.0,13.0,93,0.00,,---,0.01,VWS V14.00,2013-02-12 22:14:00,
2013-02-12 17:19:00,54.9,52.9,30.01,WSW,244,4.0,13.0,93,0.00,,---,0.01,VWS V14.00,2013-02-12 22:19:00,
2013-02-12 17:24:00,54.8,52.8,30.02,SW,236,6.0,13.0,93,0.00,,---,0.01,VWS V14.00,2013-02-12 22:24:00,
2013-02-12 17:29:00,54.7,52.7,30.01,SW,223,4.0,13.0,93,0.00,,---,0.01,VWS V14.00,2013-02-12 22:29:00,
2013-02-12 17:34:00,54.6,52.9,30.01,WSW,237,2.0,6.0,94,0.00,,---,0.01,VWS V14.00,2013-02-12 22:34:00,
2013-02-12 17:40:00,54.5,53.1,30.00,SW,230,2.0,6.0,95,0.00,,---,0.01,VWS V14.00,2013-02-12 22:40:00,
2013-02-12 17:45:00,54.5,53.1,30.00,SW,228,1.0,6.0,95,0.00,,---,0.01,VWS V14.00,2013-02-12 22:45:00,
2013-02-12 17:50:00,54.4,53.3,30.02,SW,226,3.0,6.0,96,0.00,,---,0.01,VWS V14.00,2013-02-12 22:50:00,
2013-02-12 17:55:00,54.4,53.6,30.02,SW,235,3.0,6.0,97,0.00,,---,0.01,VWS V14.00,2013-02-12 22:55:00,
2013-02-12 18:00:00,54.3,53.5,30.02,SW,235,1.0,2.0,97,0.00,,---,0.01,VWS V14.00,2013-02-12 23:00:00,
2013-02-12 18:05:00,54.3,53.8,30.02,WSW,239,1.0,5.0,98,0.00,,---,0.01,VWS V14.00,2013-02-12 23:05:00,
2013-02-12 18:10:00,54.2,53.7,30.02,WSW,240,1.0,5.0,98,0.00,,---,0.01,VWS V14.00,2013-02-12 23:10:00,
2013-02-12 18:15:00,54.2,53.7,30.03,WSW,240,1.0,5.0,98,0.00,,---,0.01,VWS V14.00,2013-02-12 23:15:00,
2013-02-12 18:20:00,54.2,53.9,30.03,WSW,242,1.0,5.0,99,0.00,,---,0.01,VWS V14.00,2013-02-12 23:20:00,
2013-02-12 18:25:00,54.2,54.2,30.04,WSW,258,2.0,5.0,100,0.00,,---,0.01,VWS V14.00,2013-02-12 23:25:00,
2013-02-12 18:30:00,54.3,54.3,30.04,West,263,4.0,4.0,100,0.00,,---,0.01,VWS V14.00,2013-02-12 23:30:00,
2013-02-12 18:35:00,54.3,54.3,30.04,West,271,4.0,7.0,100,0.00,,---,0.01,VWS V14.00,2013-02-12 23:35:00,
2013-02-12 18:40:00,54.3,54.3,30.05,West,275,5.0,8.0,100,0.00,,---,0.01,VWS V14.00,2013-02-12 23:40:00,
2013-02-12 18:45:00,54.4,54.4,30.05,West,273,4.0,8.0,100,0.00,,---,0.01,VWS V14.00,2013-02-12 23:45:00,
2013-02-12 18:50:00,54.3,54.3,30.04,WNW,283,2.0,8.0,100,0.00,,---,0.01,VWS V14.00,2013-02-12 23:50:00,
2013-02-12 18:55:00,54.3,54.3,30.05,WNW,282,2.0,8.0,100,0.00,,---,0.01,VWS V14.00,2013-02-12 23:55:00,
2013-02-12 19:00:00,54.3,54.3,30.05,WNW,282,2.0,3.0,100,0.00,,---,0.01,VWS V14.00,2013-02-13 00:00:00,
2013-02-12 19:05:00,54.3,54.3,30.03,WNW,282,0.0,4.0,100,0.00,,---,0.01,VWS V14.00,2013-02-13 00:05:00,
2013-02-12 19:10:00,54.2,54.2,30.03,WNW,282,0.0,4.0,100,0.00,,---,0.01,VWS V14.00,2013-02-13 00:10:00,
2013-02-12 19:15:00,54.2,54.2,30.03,WNW,282,1.0,4.0,100,0.00,,---,0.01,VWS V14.00,2013-02-13 00:15:00,
2013-02-12 19:20:00,54.1,54.1,30.03,WNW,282,0.0,4.0,100,0.00,,---,0.01,VWS V14.00,2013-02-13 00:20:00,
2013-02-12 19:25:00,54.1,54.1,30.03,WNW,282,0.0,4.0,100,0.00,,---,0.01,VWS V14.00,2013-02-13 00:25:00,
2013-02-12 19:30:00,54.1,54.1,30.03,WNW,282,0.0,0.0,100,0.00,,---,0.01,VWS V14.00,2013-02-13 00:30:00,
2013-02-12 19:35:00,54.0,54.0,30.02,WNW,282,0.0,0.0,100,0.00,,---,0.01,VWS V14.00,2013-02-13 00:35:00,
2013-02-12 19:40:00,54.0,54.0,30.02,WNW,282,0.0,0.0,100,0.00,,---,0.01,VWS V14.00,2013-02-13 00:40:00,
2013-02-12 19:45:00,53.9,53.9,30.02,WNW,282,0.0,0.0,100,0.00,,---,0.01,VWS V14.00,2013-02-13 00:45:00,
2013-02-12 19:50:00,54.0,54.0,30.03,WNW,282,0.0,0.0,100,0.00,,---,0.01,VWS V14.00,2013-02-13 00:50:00,
2013-02-12 19:55:00,54.0,54.0,30.03,WNW,282,1.0,2.0,100,0.00,,---,0.01,VWS V14.00,2013-02-13 00:55:00,
2013-02-12 20:00:00,53.9,53.9,30.03,WNW,282,2.0,2.0,100,0.00,,---,0.01,VWS V14.00,2013-02-13 01:00:00,
2013-02-12 20:05:00,53.9,53.9,30.02,WNW,282,0.0,2.0,100,0.00,,---,0.01,VWS V14.00,2013-02-13 01:05:00,
2013-02-12 20:10:00,53.8,53.8,30.02,WNW,282,0.0,2.0,100,0.00,,---,0.01,VWS V14.00,2013-02-13 01:10:00,
2013-02-12 20:15:00,53.8,53.8,30.02,WNW,282,1.0,2.0,100,0.00,,---,0.01,VWS V14.00,2013-02-13 01:15:00,
2013-02-12 20:20:00,53.8,53.8,30.02,WNW,282,0.0,2.0,100,0.00,,---,0.01,VWS V14.00,2013-02-13 01:20:00,
2013-02-12 20:25:00,53.8,53.8,30.03,WNW,282,0.0,2.0,100,0.00,,---,0.01,VWS V14.00,2013-02-13 01:25:00,
2013-02-12 20:30:00,53.8,53.8,30.03,WNW,282,2.0,2.0,100,0.00,,---,0.01,VWS V14.00,2013-02-13 01:30:00,
2013-02-12 20:35:00,53.8,53.8,30.03,WNW,282,2.0,2.0,100,0.00,,---,0.01,VWS V14.00,2013-02-13 01:35:00,
2013-02-12 20:40:00,53.8,53.8,30.02,WNW,282,2.0,3.0,100,0.00,,---,0.01,VWS V14.00,2013-02-13 01:40:00,
2013-02-12 20:45:00,53.8,53.8,30.02,WNW,282,1.0,3.0,100,0.00,,---,0.01,VWS V14.00,2013-02-13 01:45:00,
2013-02-12 20:50:00,53.8,53.8,30.01,WNW,282,1.0,3.0,100,0.00,,---,0.01,VWS V14.00,2013-02-13 01:50:00,
2013-02-12 20:55:00,53.7,53.7,30.00,WNW,282,0.0,3.0,100,0.00,,---,0.01,VWS V14.00,2013-02-13 01:55:00,
2013-02-12 21:00:00,53.7,53.7,29.99,WNW,282,0.0,0.0,100,0.00,,---,0.01,VWS V14.00,2013-02-13 02:00:00,
2013-02-12 21:05:00,53.6,53.6,30.00,WNW,282,0.0,0.0,100,0.00,,---,0.01,VWS V14.00,2013-02-13 02:05:00,
2013-02-12 21:10:00,53.5,53.5,30.00,WNW,282,0.0,0.0,100,0.00,,---,0.01,VWS V14.00,2013-02-13 02:10:00,
2013-02-12 21:15:00,53.5,53.5,30.00,WNW,282,0.0,0.0,100,0.00,,---,0.01,VWS V14.00,2013-02-13 02:15:00,
2013-02-12 21:20:00,53.5,53.5,29.99,WNW,282,0.0,0.0,100,0.00,,---,0.01,VWS V14.00,2013-02-13 02:20:00,
2013-02-12 21:25:00,53.4,53.4,29.99,WNW,282,0.0,0.0,100,0.00,,---,0.01,VWS V14.00,2013-02-13 02:25:00,
2013-02-12 21:30:00,53.4,53.4,30.00,WNW,282,0.0,1.0,100,0.00,,---,0.01,VWS V14.00,2013-02-13 02:30:00,
2013-02-12 21:35:00,53.4,53.4,30.00,West,267,2.0,3.0,100,0.00,,---,0.01,VWS V14.00,2013-02-13 02:35:00,
2013-02-12 21:40:00,53.4,53.4,30.01,West,266,2.0,3.0,100,0.00,,---,0.01,VWS V14.00,2013-02-13 02:40:00,
2013-02-12 21:45:00,53.5,53.5,30.01,West,266,1.0,3.0,100,0.00,,---,0.01,VWS V14.00,2013-02-13 02:45:00,
2013-02-12 21:50:00,53.5,53.5,30.01,West,266,0.0,3.0,100,0.00,,---,0.01,VWS V14.00,2013-02-13 02:50:00,
2013-02-12 21:55:00,53.6,53.6,30.01,West,266,1.0,3.0,100,0.00,,---,0.01,VWS V14.00,2013-02-13 02:55:00,
2013-02-12 22:00:00,53.6,53.6,30.00,West,266,0.0,0.0,100,0.00,,---,0.01,VWS V14.00,2013-02-13 03:00:00,
2013-02-12 22:05:00,53.6,53.6,30.00,West,266,0.0,0.0,100,0.00,,---,0.01,VWS V14.00,2013-02-13 03:05:00,
2013-02-12 22:10:00,53.6,53.6,30.00,West,266,0.0,0.0,100,0.00,,---,0.01,VWS V14.00,2013-02-13 03:10:00,
2013-02-12 22:15:00,53.6,53.6,30.01,West,266,0.0,0.0,100,0.00,,---,0.01,VWS V14.00,2013-02-13 03:15:00,
2013-02-12 22:20:00,53.6,53.6,30.00,West,266,0.0,0.0,100,0.00,,---,0.01,VWS V14.00,2013-02-13 03:20:00,
2013-02-12 22:25:00,53.6,53.6,30.01,West,266,0.0,0.0,100,0.00,,---,0.01,VWS V14.00,2013-02-13 03:25:00,
2013-02-12 22:30:00,53.7,53.7,30.01,West,266,2.0,3.0,100,0.00,,---,0.01,VWS V14.00,2013-02-13 03:30:00,
2013-02-12 22:35:00,53.8,53.8,30.03,West,272,3.0,3.0,100,0.00,,---,0.01,VWS V14.00,2013-02-13 03:35:00,
2013-02-12 22:40:00,53.8,53.8,30.03,WNW,297,2.0,3.0,100,0.00,,---,0.01,VWS V14.00,2013-02-13 03:40:00,
2013-02-12 22:45:00,53.9,53.9,30.02,NW,319,2.0,3.0,100,0.00,,---,0.01,VWS V14.00,2013-02-13 03:45:00,
2013-02-12 22:50:00,53.9,53.9,30.02,NW,324,2.0,3.0,100,0.01,,---,0.02,VWS V14.00,2013-02-13 03:50:00,
2013-02-12 22:55:00,53.9,53.9,30.02,NW,324,2.0,3.0,100,0.01,,---,0.02,VWS V14.00,2013-02-13 03:55:00,
2013-02-12 23:00:00,53.8,53.8,30.02,NW,324,1.0,2.0,100,0.01,,---,0.02,VWS V14.00,2013-02-13 04:00:00,
2013-02-12 23:05:00,53.9,53.9,30.02,NW,324,1.0,2.0,100,0.01,,---,0.02,VWS V14.00,2013-02-13 04:05:00,
2013-02-12 23:10:00,53.8,53.8,30.02,NW,324,1.0,2.0,100,0.01,,---,0.02,VWS V14.00,2013-02-13 04:10:00,
2013-02-12 23:15:00,53.8,53.8,30.03,NW,324,2.0,2.0,100,0.02,,---,0.03,VWS V14.00,2013-02-13 04:15:00,
2013-02-12 23:20:00,53.8,53.8,30.03,NW,324,2.0,3.0,100,0.01,,---,0.03,VWS V14.00,2013-02-13 04:20:00,
2013-02-12 23:25:00,53.8,53.8,30.04,NW,324,3.0,3.0,100,0.01,,---,0.03,VWS V14.00,2013-02-13 04:25:00,
2013-02-12 23:30:00,53.8,53.8,30.05,NW,324,1.0,2.0,100,0.01,,---,0.03,VWS V14.00,2013-02-13 04:30:00,
2013-02-12 23:35:00,53.7,53.7,30.05,NW,324,3.0,4.0,100,0.01,,---,0.03,VWS V14.00,2013-02-13 04:35:00,
2013-02-12 23:40:00,53.7,53.7,30.05,NNW,336,5.0,6.0,100,0.02,,---,0.04,VWS V14.00,2013-02-13 04:40:00,
2013-02-12 23:45:00,53.7,53.7,30.05,NNW,328,5.0,7.0,100,0.02,,---,0.04,VWS V14.00,2013-02-13 04:45:00,
2013-02-12 23:50:00,53.6,53.6,30.06,NNW,335,5.0,7.0,100,0.02,,---,0.04,VWS V14.00,2013-02-13 04:50:00,
2013-02-12 23:55:00,53.5,53.5,30.06,NNW,327,5.0,7.0,100,0.02,,---,0.04,VWS V14.00,2013-02-13 04:55:00,